Time;durP1;ratioP1;P1;durP2;ratioP2;P2;SDS_P1;SDS_P2;PMS_P1;PMS_P2;Temp;Humidity;BMP_temperature;BMP_pressure;BME280_temperature;BME280_humidity;BME280_pressure;Samples;Min_cycle;Max_cycle;Signal;HPM_P1;HPM_P2
2021/01/02 00:00:27;;;;;;;66.22;20.85;;;;;;;;;;4970738;28;20050;-84
2021/01/02 00:03:00;;;;;;;73.25;21.98;;;;;;;;;;4967328;28;20055;-84
2021/01/02 00:05:42;;;;;;;80.47;22.15;;;;;;;;;;4967805;28;20079;-84
2021/01/02 00:08:15;;;;;;;61.08;20.15;;;;;;;;;;4974687;28;20051;-84
2021/01/02 00:11:03;;;;;;;72.85;21.52;;;;;;;;;;4974126;28;20152;-84
2021/01/02 00:13:49;;;;;;;74.35;22.10;;;;;;;;;;4973712;28;20527;-84
2021/01/02 00:16:35;;;;;;;73.20;21.23;;;;;;;;;;4974338;28;20254;-84
2021/01/02 00:19:08;;;;;;;71.80;21.00;;;;;;;;;;4974024;28;20082;-84
2021/01/02 00:21:44;;;;;;;67.40;20.80;;;;;;;;;;4973212;28;20522;-83
2021/01/02 00:24:29;;;;;;;67.85;21.35;;;;;;;;;;4974596;28;20559;-84
2021/01/02 00:27:21;;;;;;;60.72;19.33;;;;;;;;;;4973798;28;20129;-84
2021/01/02 00:29:59;;;;;;;66.53;20.27;;;;;;;;;;4967596;28;20043;-84
2021/01/02 00:32:39;;;;;;;67.15;20.77;;;;;;;;;;4973067;28;20046;-84
2021/01/02 00:35:06;;;;;;;73.15;22.67;;;;;;;;;;4973340;28;20043;-83
2021/01/02 00:37:38;;;;;;;72.30;22.00;;;;;;;;;;4973282;28;20055;-84
2021/01/02 00:40:09;;;;;;;76.10;22.10;;;;;;;;;;4973395;28;20047;-84
2021/01/02 00:42:37;;;;;;;66.75;22.05;;;;;;;;;;4972786;28;20062;-84
2021/01/02 00:45:06;;;;;;;79.50;22.35;;;;;;;;;;4972540;28;20101;-84
2021/01/02 00:47:34;;;;;;;80.18;24.05;;;;;;;;;;4973372;28;20082;-84
2021/01/02 00:50:07;;;;;;;73.45;24.02;;;;;;;;;;4973736;28;20047;-83
2021/01/02 00:52:46;;;;;;;82.15;21.90;;;;;;;;;;4974826;28;20061;-84
2021/01/02 00:55:13;;;;;;;77.03;23.63;;;;;;;;;;4973762;28;20148;-84
2021/01/02 00:57:49;;;;;;;82.75;23.83;;;;;;;;;;4973203;28;20097;-84
2021/01/02 01:00:27;;;;;;;82.05;25.20;;;;;;;;;;4972356;28;20078;-84
2021/01/02 01:03:01;;;;;;;83.45;25.17;;;;;;;;;;4972724;28;20133;-84
2021/01/02 01:05:55;;;;;;;95.40;26.15;;;;;;;;;;4973071;28;20054;-84
2021/01/02 01:08:24;;;;;;;95.13;26.77;;;;;;;;;;4973173;28;20082;-83
2021/01/02 01:10:51;;;;;;;97.07;26.58;;;;;;;;;;4972370;28;20081;-84
2021/01/02 01:13:21;;;;;;;94.32;26.35;;;;;;;;;;4973581;28;20078;-83
2021/01/02 01:15:51;;;;;;;101.78;28.38;;;;;;;;;;4974122;28;20055;-84
2021/01/02 01:18:32;;;;;;;105.22;26.52;;;;;;;;;;4972567;28;20141;-84
2021/01/02 01:20:59;;;;;;;115.43;28.88;;;;;;;;;;4972388;28;20485;-84
2021/01/02 01:23:30;;;;;;;95.97;26.13;;;;;;;;;;4972260;28;20070;-84
2021/01/02 01:26:04;;;;;;;106.00;27.85;;;;;;;;;;4972527;28;20066;-83
2021/01/02 01:28:40;;;;;;;102.22;28.08;;;;;;;;;;4972572;28;20050;-84
2021/01/02 01:31:10;;;;;;;112.57;28.92;;;;;;;;;;4973306;28;20484;-84
2021/01/02 01:33:48;;;;;;;110.15;30.55;;;;;;;;;;4972597;28;20047;-84
2021/01/02 01:36:20;;;;;;;98.68;29.40;;;;;;;;;;4972706;28;20057;-84
2021/01/02 01:38:55;;;;;;;110.22;30.00;;;;;;;;;;4972670;28;20139;-84
2021/01/02 01:41:37;;;;;;;109.32;27.92;;;;;;;;;;4972925;28;20051;-83
2021/01/02 01:44:21;;;;;;;118.28;30.42;;;;;;;;;;4972734;28;20106;-84
2021/01/02 01:46:52;;;;;;;108.82;30.08;;;;;;;;;;4973383;28;20108;-83
2021/01/02 01:49:32;;;;;;;124.88;30.80;;;;;;;;;;4972470;28;20098;-84
2021/01/02 01:52:12;;;;;;;127.70;31.52;;;;;;;;;;4973025;28;20093;-84
2021/01/02 01:55:06;;;;;;;126.72;32.60;;;;;;;;;;4971873;28;20227;-84
2021/01/02 01:57:41;;;;;;;131.32;32.65;;;;;;;;;;4972197;28;20058;-83
2021/01/02 02:00:12;;;;;;;124.30;35.05;;;;;;;;;;4972335;28;20113;-84
2021/01/02 02:02:47;;;;;;;133.73;32.97;;;;;;;;;;4973012;28;20538;-83
2021/01/02 02:05:15;;;;;;;130.60;33.15;;;;;;;;;;4972326;28;20137;-83
2021/01/02 02:07:46;;;;;;;119.15;32.30;;;;;;;;;;4971596;28;20157;-83
2021/01/02 02:10:26;;;;;;;141.55;34.28;;;;;;;;;;4971689;28;20050;-83
2021/01/02 02:12:57;;;;;;;130.23;33.88;;;;;;;;;;4972026;28;20186;-84
2021/01/02 02:15:28;;;;;;;128.35;34.38;;;;;;;;;;4972070;28;20101;-84
2021/01/02 02:18:14;;;;;;;131.93;33.97;;;;;;;;;;4971847;28;20097;-84
2021/01/02 02:20:46;;;;;;;144.07;35.92;;;;;;;;;;4972079;28;20054;-84
2021/01/02 02:23:16;;;;;;;149.20;37.60;;;;;;;;;;4973560;28;20051;-83
2021/01/02 02:25:48;;;;;;;148.63;34.75;;;;;;;;;;4972870;28;20129;-83
2021/01/02 02:28:31;;;;;;;141.32;34.35;;;;;;;;;;4973185;28;20086;-84
2021/01/02 02:31:10;;;;;;;136.13;34.17;;;;;;;;;;4975979;28;20499;-83
2021/01/02 02:33:37;;;;;;;152.23;36.97;;;;;;;;;;4975553;28;20075;-84
2021/01/02 02:36:37;;;;;;;147.05;35.38;;;;;;;;;;4977212;28;20042;-84
2021/01/02 02:39:08;;;;;;;143.20;36.35;;;;;;;;;;4975924;28;20078;-84
2021/01/02 02:41:40;;;;;;;148.25;35.40;;;;;;;;;;4975261;28;20102;-84
2021/01/02 02:44:12;;;;;;;151.40;36.58;;;;;;;;;;4975554;28;20075;-85
2021/01/02 02:46:43;;;;;;;155.45;36.17;;;;;;;;;;4975374;28;20444;-84
2021/01/02 02:49:11;;;;;;;142.15;35.88;;;;;;;;;;4975046;28;20078;-84
2021/01/02 02:51:58;;;;;;;162.27;35.00;;;;;;;;;;4974712;28;20051;-84
2021/01/02 02:54:37;;;;;;;175.40;36.65;;;;;;;;;;4974860;28;20058;-83
2021/01/02 02:57:04;;;;;;;170.45;37.97;;;;;;;;;;4975282;28;20082;-83
2021/01/02 02:59:30;;;;;;;147.07;35.10;;;;;;;;;;4974862;28;20057;-84
2021/01/02 03:01:57;;;;;;;160.75;37.25;;;;;;;;;;4974428;28;20058;-82
2021/01/02 03:04:25;;;;;;;163.27;36.45;;;;;;;;;;4972739;28;20082;-82
2021/01/02 03:06:52;;;;;;;148.98;38.90;;;;;;;;;;4971693;28;20050;-84
2021/01/02 03:09:20;;;;;;;160.98;35.55;;;;;;;;;;4972645;28;20051;-84
2021/01/02 03:11:48;;;;;;;155.32;36.10;;;;;;;;;;4971046;28;20138;-84
2021/01/02 03:14:15;;;;;;;160.65;36.35;;;;;;;;;;4971980;28;20082;-84
2021/01/02 03:16:41;;;;;;;148.02;35.47;;;;;;;;;;4972289;28;20698;-84
2021/01/02 03:19:08;;;;;;;167.60;37.53;;;;;;;;;;4974667;28;20085;-84
2021/01/02 03:21:35;;;;;;;171.50;37.33;;;;;;;;;;4974214;28;20081;-84
2021/01/02 03:24:03;;;;;;;175.77;38.95;;;;;;;;;;4975907;28;20048;-84
2021/01/02 03:26:30;;;;;;;156.27;35.45;;;;;;;;;;4974782;28;20097;-84
2021/01/02 03:28:57;;;;;;;158.45;36.80;;;;;;;;;;4974705;28;20110;-84
2021/01/02 03:31:27;;;;;;;141.32;35.50;;;;;;;;;;4974611;28;20054;-83
2021/01/02 03:33:54;;;;;;;142.55;36.45;;;;;;;;;;4975219;28;20146;-84
2021/01/02 03:36:20;;;;;;;146.15;35.42;;;;;;;;;;4975179;28;20087;-83
2021/01/02 03:38:58;;;;;;;171.50;37.53;;;;;;;;;;4974092;28;20138;-84
2021/01/02 03:41:25;;;;;;;155.40;36.95;;;;;;;;;;4975095;28;20484;-84
2021/01/02 03:43:52;;;;;;;156.85;35.10;;;;;;;;;;4973931;28;20093;-84
2021/01/02 03:46:19;;;;;;;154.45;35.75;;;;;;;;;;4976241;28;20051;-84
2021/01/02 03:48:54;;;;;;;175.75;37.58;;;;;;;;;;4975547;28;20050;-83
2021/01/02 03:51:25;;;;;;;152.70;35.75;;;;;;;;;;4973459;28;20408;-83
2021/01/02 03:53:55;;;;;;;151.90;36.17;;;;;;;;;;4974717;28;20054;-83
2021/01/02 03:56:26;;;;;;;142.73;35.08;;;;;;;;;;4975315;28;20050;-83
2021/01/02 03:58:55;;;;;;;170.68;37.13;;;;;;;;;;4973625;28;20385;-83
2021/01/02 04:01:21;;;;;;;164.45;37.45;;;;;;;;;;4973191;28;20066;-83
2021/01/02 04:03:52;;;;;;;168.77;38.03;;;;;;;;;;4974706;28;20527;-83
2021/01/02 04:06:26;;;;;;;167.55;37.13;;;;;;;;;;4970870;28;20050;-83
2021/01/02 04:08:53;;;;;;;169.65;38.42;;;;;;;;;;4972961;28;20051;-83
2021/01/02 04:11:19;;;;;;;191.02;39.08;;;;;;;;;;4974371;28;20051;-83
2021/01/02 04:13:46;;;;;;;178.98;39.97;;;;;;;;;;4973383;28;20082;-83
2021/01/02 04:16:13;;;;;;;188.10;41.10;;;;;;;;;;4973125;28;20081;-83
2021/01/02 04:18:41;;;;;;;175.52;40.22;;;;;;;;;;4973350;28;20482;-83
2021/01/02 04:21:08;;;;;;;180.82;38.85;;;;;;;;;;4973202;28;20425;-83
2021/01/02 04:23:38;;;;;;;183.13;37.95;;;;;;;;;;4973204;28;20078;-83
2021/01/02 04:26:04;;;;;;;183.80;39.97;;;;;;;;;;4974232;28;20051;-83
2021/01/02 04:28:34;;;;;;;166.13;37.95;;;;;;;;;;4973504;28;20484;-83
2021/01/02 04:31:01;;;;;;;157.05;37.47;;;;;;;;;;4972777;28;20403;-83
2021/01/02 04:33:29;;;;;;;190.98;40.13;;;;;;;;;;4973971;28;20137;-83
2021/01/02 04:35:56;;;;;;;157.65;36.72;;;;;;;;;;4973341;28;20100;-83
2021/01/02 04:38:22;;;;;;;164.38;39.08;;;;;;;;;;4972972;28;20539;-83
2021/01/02 04:40:54;;;;;;;164.35;37.40;;;;;;;;;;4973238;28;20050;-83
2021/01/02 04:43:21;;;;;;;168.25;41.47;;;;;;;;;;4974104;28;20050;-82
2021/01/02 04:45:48;;;;;;;173.95;39.10;;;;;;;;;;4972329;28;20063;-82
2021/01/02 04:48:16;;;;;;;174.45;38.63;;;;;;;;;;4972493;28;20057;-82
2021/01/02 04:50:49;;;;;;;162.02;37.28;;;;;;;;;;4973825;28;20046;-82
2021/01/02 04:53:17;;;;;;;158.10;38.17;;;;;;;;;;4972534;28;20074;-82
2021/01/02 04:55:45;;;;;;;167.18;39.90;;;;;;;;;;4973831;28;20051;-82
2021/01/02 04:58:15;;;;;;;155.07;36.33;;;;;;;;;;4972805;28;20463;-83
2021/01/02 05:00:43;;;;;;;167.15;38.47;;;;;;;;;;4973227;28;20061;-82
2021/01/02 05:03:09;;;;;;;163.10;37.72;;;;;;;;;;4972500;28;20050;-82
2021/01/02 05:05:36;;;;;;;158.30;38.33;;;;;;;;;;4972803;28;20050;-82
2021/01/02 05:08:03;;;;;;;169.05;37.22;;;;;;;;;;4973390;28;20145;-81
2021/01/02 05:10:30;;;;;;;147.45;36.35;;;;;;;;;;4973159;28;20110;-81
2021/01/02 05:13:12;;;;;;;160.43;36.70;;;;;;;;;;4971972;28;20051;-81
2021/01/02 05:15:39;;;;;;;168.45;36.75;;;;;;;;;;4972045;28;20093;-81
2021/01/02 05:18:06;;;;;;;148.65;36.17;;;;;;;;;;4973282;28;20078;-82
2021/01/02 05:20:32;;;;;;;152.68;37.03;;;;;;;;;;4971931;28;20476;-81
2021/01/02 05:23:09;;;;;;;147.10;36.92;;;;;;;;;;4972657;28;20109;-83
2021/01/02 05:25:36;;;;;;;138.38;35.92;;;;;;;;;;4972135;28;20566;-82
2021/01/02 05:28:03;;;;;;;150.90;38.25;;;;;;;;;;4972368;28;20137;-82
2021/01/02 05:30:36;;;;;;;160.43;36.33;;;;;;;;;;4972937;28;20479;-82
2021/01/02 05:33:10;;;;;;;149.57;37.90;;;;;;;;;;4972326;28;20140;-83
2021/01/02 05:35:47;;;;;;;147.00;37.50;;;;;;;;;;4973638;28;20116;-82
2021/01/02 05:38:19;;;;;;;137.20;37.03;;;;;;;;;;4973471;28;20051;-82
2021/01/02 05:40:50;;;;;;;153.15;36.80;;;;;;;;;;4972130;28;20085;-82
2021/01/02 05:43:18;;;;;;;145.70;36.30;;;;;;;;;;4973416;28;20055;-82
2021/01/02 05:45:44;;;;;;;132.43;35.28;;;;;;;;;;4972126;28;20082;-82
2021/01/02 05:48:12;;;;;;;155.73;37.08;;;;;;;;;;4972716;28;20051;-82
2021/01/02 05:50:47;;;;;;;126.90;32.88;;;;;;;;;;4971740;28;20081;-82
2021/01/02 05:53:22;;;;;;;150.65;37.50;;;;;;;;;;4971747;28;20098;-82
2021/01/02 05:56:10;;;;;;;141.65;35.13;;;;;;;;;;4973648;28;20138;-82
2021/01/02 05:58:37;;;;;;;;;;;;;;;;;;4976388;28;20074;-82
2021/01/02 06:01:11;;;;;;;146.63;34.25;;;;;;;;;;4976855;28;19976;-82
2021/01/02 06:03:38;;;;;;;140.80;36.63;;;;;;;;;;4975699;28;20175;-82
2021/01/02 06:06:07;;;;;;;151.07;36.13;;;;;;;;;;4976258;28;20408;-82
2021/01/02 06:08:35;;;;;;;145.45;35.47;;;;;;;;;;4974706;28;20058;-82
2021/01/02 06:11:04;;;;;;;152.43;37.10;;;;;;;;;;4975257;28;20137;-82
2021/01/02 06:13:32;;;;;;;144.35;36.40;;;;;;;;;;4973910;28;20046;-82
2021/01/02 06:16:00;;;;;;;161.63;38.08;;;;;;;;;;4971962;28;20046;-81
2021/01/02 06:18:28;;;;;;;157.82;35.83;;;;;;;;;;4972465;28;20514;-81
2021/01/02 06:21:01;;;;;;;160.18;37.92;;;;;;;;;;4973516;28;20046;-81
2021/01/02 06:23:27;;;;;;;149.82;37.42;;;;;;;;;;4976533;28;20632;-82
2021/01/02 06:25:56;;;;;;;155.38;36.80;;;;;;;;;;4975224;28;20078;-82
2021/01/02 06:28:27;;;;;;;151.38;37.47;;;;;;;;;;4973197;28;20133;-82
2021/01/02 06:31:00;;;;;;;147.52;35.30;;;;;;;;;;4972906;28;20105;-81
2021/01/02 06:33:28;;;;;;;149.25;36.13;;;;;;;;;;4976339;28;20472;-81
2021/01/02 06:35:56;;;;;;;138.10;36.08;;;;;;;;;;4975264;28;20437;-81
2021/01/02 06:38:24;;;;;;;161.32;37.72;;;;;;;;;;4976375;28;20153;-81
2021/01/02 06:40:53;;;;;;;153.18;37.42;;;;;;;;;;4975213;28;20050;-81
2021/01/02 06:43:22;;;;;;;150.48;37.45;;;;;;;;;;4976065;28;20078;-82
2021/01/02 06:45:53;;;;;;;142.93;37.20;;;;;;;;;;4976001;28;20146;-82
2021/01/02 06:48:22;;;;;;;155.57;37.75;;;;;;;;;;4976049;28;20133;-81
2021/01/02 06:50:53;;;;;;;150.32;39.50;;;;;;;;;;4975886;28;20141;-81
2021/01/02 06:53:27;;;;;;;145.60;37.47;;;;;;;;;;4974256;28;20504;-81
2021/01/02 06:55:58;;;;;;;162.38;37.15;;;;;;;;;;4975319;28;20082;-80
2021/01/02 06:58:35;;;;;;;138.98;36.80;;;;;;;;;;4968668;28;20047;-81
2021/01/02 07:01:06;;;;;;;163.40;38.28;;;;;;;;;;4989594;28;20468;-80
2021/01/02 07:03:48;;;;;;;158.98;38.35;;;;;;;;;;4971078;28;20059;-80
2021/01/02 07:06:24;;;;;;;;;;;;;;;;;;4968560;28;20057;-82
2021/01/02 07:08:53;;;;;;;141.05;38.05;;;;;;;;;;4968432;28;19926;-82
2021/01/02 07:11:40;;;;;;;154.85;38.00;;;;;;;;;;4973464;28;20126;-82
2021/01/02 07:17:09;;;;;;;189.95;41.92;;;;;;;;;;4981139;28;20051;-82
2021/01/02 07:19:46;;;;;;;157.57;38.20;;;;;;;;;;4976712;28;20050;-82
2021/01/02 07:22:21;;;;;;;155.27;38.40;;;;;;;;;;4967950;28;20397;-82
2021/01/02 07:25:00;;;;;;;149.82;38.22;;;;;;;;;;4975635;28;20049;-82
2021/01/02 07:27:30;;;;;;;143.85;36.58;;;;;;;;;;4974152;28;20105;-82
2021/01/02 07:30:00;;;;;;;144.95;37.72;;;;;;;;;;4973855;28;20146;-81
2021/01/02 07:32:31;;;;;;;146.52;38.05;;;;;;;;;;4972979;28;20452;-82
2021/01/02 07:35:08;;;;;;;150.35;39.20;;;;;;;;;;4974267;28;20146;-82
2021/01/02 07:37:36;;;;;;;158.48;38.38;;;;;;;;;;4973957;28;20085;-82
2021/01/02 07:40:10;;;;;;;139.20;37.22;;;;;;;;;;4975047;28;20397;-82
2021/01/02 07:42:38;;;;;;;152.15;40.53;;;;;;;;;;4975066;28;20141;-81
2021/01/02 07:45:08;;;;;;;154.23;39.05;;;;;;;;;;4973465;28;20507;-81
2021/01/02 07:47:48;;;;;;;149.35;36.97;;;;;;;;;;4974719;28;20055;-81
2021/01/02 07:50:17;;;;;;;150.13;37.80;;;;;;;;;;4972922;28;20377;-80
2021/01/02 07:52:48;;;;;;;165.40;37.28;;;;;;;;;;4973514;28;20130;-81
2021/01/02 07:55:15;;;;;;;165.50;38.75;;;;;;;;;;4974759;28;20043;-81
2021/01/02 07:57:43;;;;;;;142.88;37.60;;;;;;;;;;4974386;28;20097;-82
2021/01/02 08:00:11;;;;;;;151.60;39.53;;;;;;;;;;4973168;28;20574;-81
2021/01/02 08:02:40;;;;;;;170.02;39.05;;;;;;;;;;4973281;28;20141;-81
2021/01/02 08:05:11;;;;;;;158.52;40.33;;;;;;;;;;4974392;28;20055;-80
2021/01/02 08:07:38;;;;;;;140.07;37.17;;;;;;;;;;4973564;28;20062;-80
2021/01/02 08:10:06;;;;;;;160.23;37.35;;;;;;;;;;4974527;28;20101;-82
2021/01/02 08:12:32;;;;;;;143.55;38.50;;;;;;;;;;4973058;28;20122;-83
2021/01/02 08:14:59;;;;;;;144.38;39.53;;;;;;;;;;4973242;28;20085;-81
2021/01/02 08:17:27;;;;;;;157.05;39.35;;;;;;;;;;4974073;28;20047;-82
2021/01/02 08:19:55;;;;;;;150.75;40.85;;;;;;;;;;4973189;28;20082;-83
2021/01/02 08:22:28;;;;;;;152.07;40.22;;;;;;;;;;4971978;28;20121;-82
2021/01/02 08:25:02;;;;;;;164.55;38.83;;;;;;;;;;4970365;28;20043;-80
2021/01/02 08:27:32;;;;;;;143.30;37.90;;;;;;;;;;4973533;28;20141;-81
2021/01/02 08:30:04;;;;;;;142.68;40.67;;;;;;;;;;4973295;28;20047;-80
2021/01/02 08:32:35;;;;;;;161.98;40.65;;;;;;;;;;4973167;28;20050;-80
2021/01/02 08:35:02;;;;;;;157.90;38.58;;;;;;;;;;4972532;28;20496;-84
2021/01/02 08:37:31;;;;;;;158.55;38.92;;;;;;;;;;4972093;28;20713;-83
2021/01/02 08:40:06;;;;;;;158.10;41.10;;;;;;;;;;4972586;28;20077;-83
2021/01/02 08:42:39;;;;;;;149.20;39.30;;;;;;;;;;4973779;28;20047;-83
2021/01/02 08:45:07;;;;;;;177.65;40.45;;;;;;;;;;4972702;28;20074;-83
2021/01/02 08:47:36;;;;;;;173.48;41.50;;;;;;;;;;4973627;28;20082;-83
2021/01/02 08:50:09;;;;;;;158.07;40.15;;;;;;;;;;4973833;28;20504;-83
2021/01/02 08:52:37;;;;;;;177.75;44.35;;;;;;;;;;4973827;28;20081;-83
2021/01/02 08:55:14;;;;;;;186.57;44.30;;;;;;;;;;4974395;28;20051;-82
2021/01/02 08:58:00;;;;;;;183.73;41.72;;;;;;;;;;4972571;28;20419;-83
2021/01/02 09:00:31;;;;;;;230.30;66.82;;;;;;;;;;4972809;28;20062;-82
2021/01/02 09:03:00;;;;;;;220.15;62.67;;;;;;;;;;4973283;28;20046;-82
2021/01/02 09:05:31;;;;;;;183.73;47.05;;;;;;;;;;4973766;28;20055;-83
2021/01/02 09:08:07;;;;;;;173.35;49.35;;;;;;;;;;4972821;28;20054;-82
2021/01/02 09:10:37;;;;;;;193.77;54.92;;;;;;;;;;4972946;28;20142;-82
2021/01/02 09:13:20;;;;;;;192.63;49.83;;;;;;;;;;4972424;28;20137;-82
2021/01/02 09:15:48;;;;;;;185.73;44.47;;;;;;;;;;4972252;28;20130;-82
2021/01/02 09:18:15;;;;;;;192.27;52.28;;;;;;;;;;4973564;28;20047;-81
2021/01/02 09:20:42;;;;;;;262.40;73.88;;;;;;;;;;4973754;28;20078;-82
2021/01/02 09:23:11;;;;;;;159.27;41.78;;;;;;;;;;4973177;28;20138;-82
2021/01/02 09:25:43;;;;;;;162.13;38.53;;;;;;;;;;4973489;28;20153;-81
2021/01/02 09:28:14;;;;;;;182.18;48.60;;;;;;;;;;4973765;28;20082;-82
2021/01/02 09:30:41;;;;;;;175.60;43.33;;;;;;;;;;4973152;28;20105;-81
2021/01/02 09:33:20;;;;;;;175.52;43.03;;;;;;;;;;4970893;28;20114;-81
2021/01/02 09:35:50;;;;;;;159.48;37.38;;;;;;;;;;4973205;28;20126;-82
2021/01/02 09:38:18;;;;;;;149.45;35.70;;;;;;;;;;4972075;28;20507;-82
2021/01/02 09:40:53;;;;;;;144.30;37.28;;;;;;;;;;4973347;28;20050;-82
2021/01/02 09:43:20;;;;;;;160.55;38.00;;;;;;;;;;4971479;28;20122;-82
2021/01/02 09:45:47;;;;;;;170.15;41.30;;;;;;;;;;4973109;28;20090;-81
2021/01/02 09:48:14;;;;;;;163.10;38.75;;;;;;;;;;4971790;28;20105;-82
2021/01/02 09:50:41;;;;;;;166.07;39.42;;;;;;;;;;4973148;28;20445;-82
2021/01/02 09:53:09;;;;;;;169.15;40.78;;;;;;;;;;4971988;28;20083;-80
2021/01/02 09:55:35;;;;;;;166.82;39.58;;;;;;;;;;4972436;28;20448;-80
2021/01/02 09:58:02;;;;;;;167.93;40.20;;;;;;;;;;4972156;28;20138;-80
2021/01/02 10:00:30;;;;;;;184.10;40.92;;;;;;;;;;4961362;28;20051;-80
2021/01/02 10:02:57;;;;;;;165.80;41.80;;;;;;;;;;4967076;28;20090;-80
2021/01/02 10:05:42;;;;;;;170.27;39.63;;;;;;;;;;4953314;28;20055;-81
2021/01/02 10:08:09;;;;;;;186.30;43.13;;;;;;;;;;4953375;28;20098;-82
2021/01/02 10:10:37;;;;;;;161.52;38.95;;;;;;;;;;4971389;28;20054;-79
2021/01/02 10:13:03;;;;;;;168.98;40.72;;;;;;;;;;4960782;28;20051;-82
2021/01/02 10:15:31;;;;;;;196.00;40.58;;;;;;;;;;4953011;29;20401;-82
2021/01/02 10:17:58;;;;;;;180.90;41.88;;;;;;;;;;4952367;29;20110;-81
2021/01/02 10:20:28;;;;;;;167.93;40.15;;;;;;;;;;4955031;28;20087;-81
2021/01/02 10:22:54;;;;;;;170.07;40.22;;;;;;;;;;4972694;28;20055;-83
2021/01/02 10:25:28;;;;;;;168.80;40.95;;;;;;;;;;4972890;28;20078;-83
2021/01/02 10:27:55;;;;;;;146.60;39.55;;;;;;;;;;4973193;28;20113;-84
2021/01/02 10:30:24;;;;;;;178.05;40.55;;;;;;;;;;4961572;28;20053;-84
2021/01/02 10:32:53;;;;;;;156.85;40.05;;;;;;;;;;4969968;28;20061;-86
2021/01/02 10:35:21;;;;;;;185.27;39.97;;;;;;;;;;4974393;28;20047;-83
2021/01/02 10:37:55;;;;;;;174.20;38.78;;;;;;;;;;4973092;28;20079;-84
2021/01/02 10:40:30;;;;;;;150.50;39.65;;;;;;;;;;4974980;28;20078;-85
2021/01/02 10:42:57;;;;;;;155.55;38.03;;;;;;;;;;4971715;28;20055;-80
2021/01/02 10:45:23;;;;;;;161.98;37.80;;;;;;;;;;4961457;28;20527;-82
2021/01/02 10:47:52;;;;;;;168.57;41.83;;;;;;;;;;4956699;28;20473;-85
2021/01/02 10:50:24;;;;;;;205.02;42.30;;;;;;;;;;4963701;28;20066;-78
2021/01/02 10:52:50;;;;;;;173.98;42.97;;;;;;;;;;4955001;28;20086;-78
2021/01/02 10:55:17;;;;;;;286.05;55.95;;;;;;;;;;4968112;28;20138;-78
2021/01/02 10:57:45;;;;;;;152.73;37.30;;;;;;;;;;4956184;28;20127;-77
2021/01/02 11:00:11;;;;;;;130.27;33.28;;;;;;;;;;4965244;28;20432;-78
2021/01/02 11:02:38;;;;;;;119.55;31.80;;;;;;;;;;4972307;28;20078;-81
2021/01/02 11:05:11;;;;;;;136.00;33.33;;;;;;;;;;4975779;28;20117;-82
2021/01/02 11:07:40;;;;;;;138.00;34.80;;;;;;;;;;4974098;28;20055;-78
2021/01/02 11:10:07;;;;;;;138.80;34.33;;;;;;;;;;4972812;28;20055;-79
2021/01/02 11:12:39;;;;;;;119.82;34.08;;;;;;;;;;4968453;28;20055;-80
2021/01/02 11:15:07;;;;;;;117.40;33.42;;;;;;;;;;4973321;28;20442;-78
2021/01/02 11:17:38;;;;;;;130.27;31.92;;;;;;;;;;4971690;28;20440;-78
2021/01/02 11:20:05;;;;;;;132.30;35.58;;;;;;;;;;4971715;28;20484;-77
2021/01/02 11:22:31;;;;;;;129.90;35.72;;;;;;;;;;4973529;28;20082;-77
2021/01/02 11:24:58;;;;;;;123.50;33.78;;;;;;;;;;4972817;28;20682;-77
2021/01/02 11:27:25;;;;;;;111.90;30.92;;;;;;;;;;4973199;28;20137;-77
2021/01/02 11:29:54;;;;;;;132.77;32.20;;;;;;;;;;4973351;28;20082;-76
2021/01/02 11:32:23;;;;;;;102.50;28.55;;;;;;;;;;4972763;28;20047;-77
2021/01/02 11:34:50;;;;;;;98.97;27.90;;;;;;;;;;4972479;28;20391;-77
2021/01/02 11:37:17;;;;;;;93.85;27.85;;;;;;;;;;4971655;28;20046;-78
2021/01/02 11:39:43;;;;;;;97.53;27.35;;;;;;;;;;4970464;28;20061;-77
2021/01/02 11:42:10;;;;;;;106.28;28.50;;;;;;;;;;4960867;28;20467;-77
2021/01/02 11:44:37;;;;;;;106.38;28.88;;;;;;;;;;4959478;28;20054;-76
2021/01/02 11:47:06;;;;;;;111.25;29.35;;;;;;;;;;4960298;28;20082;-77
2021/01/02 11:49:35;;;;;;;112.95;29.73;;;;;;;;;;4966934;28;20054;-77
2021/01/02 11:52:04;;;;;;;96.55;27.20;;;;;;;;;;4967453;28;20153;-79
2021/01/02 11:54:32;;;;;;;99.00;29.13;;;;;;;;;;4969001;28;20098;-81
2021/01/02 11:56:59;;;;;;;113.30;33.63;;;;;;;;;;4961705;28;20433;-79
2021/01/02 11:59:26;;;;;;;111.15;30.02;;;;;;;;;;4955277;28;20052;-83
2021/01/02 12:01:54;;;;;;;115.22;35.20;;;;;;;;;;4968185;28;20106;-82
2021/01/02 12:04:25;;;;;;;121.65;33.58;;;;;;;;;;4972723;28;20046;-82
2021/01/02 12:06:52;;;;;;;106.05;31.08;;;;;;;;;;4973122;28;20086;-78
2021/01/02 12:09:20;;;;;;;109.22;30.35;;;;;;;;;;4970673;28;20058;-77
2021/01/02 12:11:49;;;;;;;108.93;29.15;;;;;;;;;;4968919;28;20055;-78
2021/01/02 12:14:18;;;;;;;125.30;34.67;;;;;;;;;;4965031;28;20050;-77
2021/01/02 12:16:49;;;;;;;119.25;32.38;;;;;;;;;;4970677;28;20085;-77
2021/01/02 12:19:17;;;;;;;151.10;38.70;;;;;;;;;;4970444;28;20065;-77
2021/01/02 12:21:45;;;;;;;125.20;35.45;;;;;;;;;;4969424;28;20077;-77
2021/01/02 12:24:15;;;;;;;107.15;30.40;;;;;;;;;;4970930;28;20055;-83
2021/01/02 12:26:49;;;;;;;100.65;29.70;;;;;;;;;;4953427;28;20051;-77
2021/01/02 12:29:18;;;;;;;135.85;37.55;;;;;;;;;;4961868;28;20054;-83
2021/01/02 12:31:54;;;;;;;141.52;40.10;;;;;;;;;;4973684;28;20133;-84
2021/01/02 12:34:24;;;;;;;98.85;27.92;;;;;;;;;;4973281;28;20055;-77
2021/01/02 12:36:54;;;;;;;116.28;33.65;;;;;;;;;;4968705;28;20054;-78
2021/01/02 12:39:24;;;;;;;97.72;30.05;;;;;;;;;;4971305;28;20050;-77
2021/01/02 12:41:54;;;;;;;114.35;34.35;;;;;;;;;;4962010;28;20125;-77
2021/01/02 12:44:21;;;;;;;131.48;39.58;;;;;;;;;;4952068;29;20130;-78
2021/01/02 12:46:54;;;;;;;133.75;39.30;;;;;;;;;;4950765;28;20124;-83
2021/01/02 12:49:23;;;;;;;90.25;28.90;;;;;;;;;;4954123;28;20051;-84
2021/01/02 12:51:55;;;;;;;90.10;27.17;;;;;;;;;;4953207;28;20055;-77
2021/01/02 12:54:24;;;;;;;106.88;27.25;;;;;;;;;;4952192;28;20098;-78
2021/01/02 12:56:54;;;;;;;97.50;28.80;;;;;;;;;;4951477;28;20078;-77
2021/01/02 12:59:32;;;;;;;93.90;27.85;;;;;;;;;;4952461;29;20130;-83
2021/01/02 13:02:04;;;;;;;99.95;26.83;;;;;;;;;;4962390;28;20054;-83
2021/01/02 13:04:30;;;;;;;95.95;28.23;;;;;;;;;;4972031;28;20075;-83
2021/01/02 13:07:05;;;;;;;96.22;28.33;;;;;;;;;;4971989;28;20137;-85
2021/01/02 13:09:34;;;;;;;96.15;28.00;;;;;;;;;;4967056;28;20063;-78
2021/01/02 13:12:01;;;;;;;99.18;27.15;;;;;;;;;;4950971;28;20150;-78
2021/01/02 13:14:30;;;;;;;95.80;27.48;;;;;;;;;;4954980;28;20054;-85
2021/01/02 13:16:57;;;;;;;91.88;26.40;;;;;;;;;;4973892;28;20094;-85
2021/01/02 13:19:24;;;;;;;92.80;28.10;;;;;;;;;;4969166;28;20126;-85
2021/01/02 13:21:52;;;;;;;89.13;26.23;;;;;;;;;;4953644;28;20146;-85
2021/01/02 13:24:46;;;;;;;101.78;28.73;;;;;;;;;;4953741;28;20059;-84
2021/01/02 13:27:13;;;;;;;93.88;27.20;;;;;;;;;;4970523;28;20488;-85
2021/01/02 13:29:43;;;;;;;91.75;26.48;;;;;;;;;;4955521;28;20512;-84
2021/01/02 13:32:10;;;;;;;97.80;27.48;;;;;;;;;;4971051;28;20073;-78
2021/01/02 13:34:40;;;;;;;98.72;26.50;;;;;;;;;;4962246;28;20802;-78
2021/01/02 13:37:12;;;;;;;97.15;25.98;;;;;;;;;;4951985;28;20500;-78
2021/01/02 13:39:45;;;;;;;92.00;25.73;;;;;;;;;;4958050;28;20607;-85
2021/01/02 13:42:14;;;;;;;92.93;27.52;;;;;;;;;;4972252;28;20061;-78
2021/01/02 13:44:41;;;;;;;98.85;27.80;;;;;;;;;;4969939;28;20055;-85
2021/01/02 13:47:09;;;;;;;95.47;29.20;;;;;;;;;;4969224;28;20530;-78
2021/01/02 13:49:36;;;;;;;108.53;29.33;;;;;;;;;;4964774;28;20086;-83
2021/01/02 13:52:05;;;;;;;113.60;30.65;;;;;;;;;;4971234;28;20523;-83
2021/01/02 13:54:32;;;;;;;108.15;31.60;;;;;;;;;;4972838;28;20054;-83
2021/01/02 13:57:05;;;;;;;111.78;28.88;;;;;;;;;;4972976;28;20061;-83
2021/01/02 13:59:40;;;;;;;104.38;29.88;;;;;;;;;;4971956;28;20058;-83
2021/01/02 14:02:10;;;;;;;97.47;26.98;;;;;;;;;;4964391;28;20122;-83
2021/01/02 14:04:41;;;;;;;89.95;26.88;;;;;;;;;;4953841;28;20082;-83
2021/01/02 14:07:13;;;;;;;100.72;28.13;;;;;;;;;;4952177;28;20074;-83
2021/01/02 14:09:39;;;;;;;99.65;27.63;;;;;;;;;;4954384;28;20082;-78
2021/01/02 14:12:06;;;;;;;99.78;30.55;;;;;;;;;;4953694;28;20079;-83
2021/01/02 14:14:38;;;;;;;100.88;29.25;;;;;;;;;;4972623;28;20101;-83
2021/01/02 14:17:05;;;;;;;100.32;29.70;;;;;;;;;;4961535;28;20046;-79
2021/01/02 14:19:32;;;;;;;98.45;30.92;;;;;;;;;;4972975;28;20079;-82
2021/01/02 14:22:03;;;;;;;103.93;31.13;;;;;;;;;;4975046;28;20051;-79
2021/01/02 14:24:31;;;;;;;118.75;34.22;;;;;;;;;;4975554;28;20055;-82
2021/01/02 14:27:09;;;;;;;101.85;28.98;;;;;;;;;;4959791;28;20059;-81
2021/01/02 14:29:55;;;;;;;96.53;26.67;;;;;;;;;;4955844;29;20118;-84
2021/01/02 14:32:29;;;;;;;87.05;27.58;;;;;;;;;;4974087;28;20058;-84